METAR AND TAF INFORMATION
METAR FOR LFRC
ADDS - METARS form results

(2321 UTC 15 February 2019)
Data provider http://aviationweather.gov/metar/data/
 
METAR text: LFRC 152300Z AUTO 21009KT CAVOK 08/05 Q1025
Conditions at: LFRC (CHERBOURG/MAUPER, FR) observed 2300 UTC 15 February 2019
Temperature: 8.0°C (46°F)
Dewpoint: 5.0°C (41°F) [RH = 81%]
Pressure (altimeter): 30.27 inches Hg (1025.0 mb)
Winds: from the SSW (210 degrees) at 10 MPH (9 knots; 4.6 m/s)
Visibility: 6 or more miles (10+ km)
Ceiling: ceiling and visibility are OK
Clouds: unknown
Weather: no significant weather observed at this time

METAR text: LFRC 152230Z AUTO 21010KT CAVOK 09/05 Q1025
Conditions at: LFRC (CHERBOURG/MAUPER, FR) observed 2230 UTC 15 February 2019
Temperature: 9.0°C (48°F)
Dewpoint: 5.0°C (41°F) [RH = 76%]
Pressure (altimeter): 30.27 inches Hg (1025.0 mb)
Winds: from the SSW (210 degrees) at 12 MPH (10 knots; 5.1 m/s)
Visibility: 6 or more miles (10+ km)
Ceiling: ceiling and visibility are OK
Clouds: unknown
Weather: no significant weather observed at this time

Forecast for: LFRC (CHERBOURG/MAUPER, FR)
Text: TAF LFRC 151400Z 1515/1524 18010KT CAVOK
Forecast period: 1500 UTC 15 February 2019 to 0000 UTC 16 February 2019
Forecast type: FROM: standard forecast or significant change
Winds: from the S (180 degrees) at 12 MPH (10 knots; 5.1 m/s)
Visibility: 6 or more miles 10+ km)
Ceiling: unknown
Clouds: missing
Weather: NSW  (no significant weather)
Text: PROB40
Forecast period: 2100 UTC 15 February 2019 to 0000 UTC 16 February 2019
Forecast type: TEMPORARY: The following changes expected for less than half the time period
Visibility: 1.86 miles (2.99 km)
Ceiling: unknown
Clouds: missing
Weather: BR  (mist)

 AIRPORT MAP

 RUNWAY INFORMATION
Runway 10 Runway length 8005 ft Runway width 148 ft
Runway elevation 452 ft Runway displaced threshold 0 ft Runway heading 101
Runway 28 Runway length 8005 ft Runway width 148 ft
Runway elevation 428 ft Runway displaced threshold 0 ft Runway heading 281

 AIRPORT FREQUENCIES
Type APP Name DEAUVILLE Frequency 119.35 MHZ
Type TWR Name CHERBOURG Frequency 119.625 MHZ

 AIRPORT NEAR NAVIGATION AIDS



Powered by Virtual Airlines Manager [v2.6.2]